Time;durP1;ratioP1;P1;durP2;ratioP2;P2;SDS_P1;SDS_P2;PMS_P1;PMS_P2;Temp;Humidity;BMP_temperature;BMP_pressure;BME280_temperature;BME280_humidity;BME280_pressure;Samples;Min_cycle;Max_cycle;Signal;HPM_P1;HPM_P2
2021/09/30 00:01:14;;;;;;;3.13;1.63;;;11.60;99.90;;;;;;5015216;28;20180;-78
2021/09/30 00:03:40;;;;;;;2.38;1.70;;;11.70;99.90;;;;;;5015317;28;20173;-78
2021/09/30 00:06:05;;;;;;;4.55;1.58;;;11.70;99.90;;;;;;5015085;28;20165;-79
2021/09/30 00:08:31;;;;;;;5.07;1.50;;;11.50;99.90;;;;;;5015026;28;20220;-79
2021/09/30 00:11:06;;;;;;;2.05;1.45;;;11.50;99.90;;;;;;5015163;28;20168;-80
2021/09/30 00:13:53;;;;;;;1.85;1.00;;;11.60;99.90;;;;;;5014760;28;20183;-81
2021/09/30 00:16:31;;;;;;;4.95;1.30;;;11.60;99.90;;;;;;5014891;28;20634;-79
2021/09/30 02:19:50;;;;;;;3.58;1.30;;;11.10;99.90;;;;;;5012531;28;20199;-80
2021/09/30 02:28:08;;;;;;;3.50;1.33;;;11.00;99.90;;;;;;5012875;28;20180;-77
2021/09/30 02:58:30;;;;;;;3.80;1.70;;;10.60;99.90;;;;;;5013086;28;20231;-80
2021/09/30 03:00:58;;;;;;;6.25;1.80;;;10.60;99.90;;;;;;5013362;28;20168;-84
2021/09/30 03:03:27;;;;;;;4.22;1.88;;;10.60;99.90;;;;;;5012643;28;20164;-80
2021/09/30 03:05:54;;;;;;;2.55;1.70;;;10.50;99.90;;;;;;5012557;28;20165;-83
2021/09/30 03:08:24;;;;;;;8.82;1.95;;;10.40;99.90;;;;;;5011165;28;20629;-80
2021/09/30 03:10:53;;;;;;;10.75;2.33;;;10.60;99.90;;;;;;5012431;28;20219;-84
2021/09/30 03:13:20;;;;;;;3.25;1.67;;;10.60;99.90;;;;;;5012545;28;20168;-81
2021/09/30 03:15:59;;;;;;;6.50;1.50;;;10.60;99.90;;;;;;5012493;28;20288;-81
2021/09/30 03:23:28;;;;;;;1.70;1.20;;;10.40;99.90;;;;;;5016558;28;20177;-82
2021/09/30 03:25:54;;;;;;;2.05;1.63;;;10.30;99.90;;;;;;5016137;28;20168;-79
2021/09/30 03:28:23;;;;;;;3.78;1.50;;;10.40;99.90;;;;;;5016265;28;20160;-80
2021/09/30 03:30:53;;;;;;;5.50;1.50;;;10.40;99.90;;;;;;5016139;28;20168;-83
2021/09/30 03:33:19;;;;;;;5.30;1.90;;;10.40;99.90;;;;;;5015729;28;20187;-80
2021/09/30 03:35:45;;;;;;;3.13;1.52;;;10.30;99.90;;;;;;5014348;28;20293;-82
2021/09/30 03:38:11;;;;;;;6.43;1.52;;;10.20;99.90;;;;;;5015699;28;20168;-80
2021/09/30 03:40:38;;;;;;;7.55;1.63;;;10.30;99.90;;;;;;5015886;28;20167;-81
2021/09/30 03:43:05;;;;;;;2.67;1.55;;;10.30;99.90;;;;;;5015427;28;20490;-78
2021/09/30 03:45:31;;;;;;;4.60;2.38;;;10.30;99.90;;;;;;5015502;28;20676;-79
2021/09/30 03:47:57;;;;;;;3.80;1.92;;;10.40;99.90;;;;;;5015534;28;20171;-80
2021/09/30 03:50:26;;;;;;;7.05;1.38;;;10.30;99.90;;;;;;5015354;28;20192;-83
2021/09/30 04:00:38;;;;;;;6.90;1.35;;;10.40;99.90;;;;;;5015371;28;20180;-81
2021/09/30 04:03:04;;;;;;;6.53;1.58;;;10.50;99.90;;;;;;5015894;28;20219;-82
2021/09/30 04:05:30;;;;;;;4.47;2.00;;;10.50;99.90;;;;;;5014851;28;20177;-81
2021/09/30 04:07:56;;;;;;;4.78;1.85;;;10.40;99.90;;;;;;5015314;28;20523;-79
2021/09/30 04:10:22;;;;;;;5.80;1.73;;;10.20;99.90;;;;;;5015256;28;20193;-79
2021/09/30 04:12:47;;;;;;;5.20;1.42;;;10.20;99.90;;;;;;5015473;28;20187;-79
2021/09/30 04:15:13;;;;;;;2.65;1.23;;;10.20;99.90;;;;;;5015145;28;20291;-81
2021/09/30 04:17:39;;;;;;;5.95;1.70;;;10.30;99.90;;;;;;5015320;28;20164;-80
2021/09/30 04:20:05;;;;;;;10.50;2.58;;;10.20;99.90;;;;;;5015501;28;20526;-79
2021/09/30 04:22:31;;;;;;;2.53;1.52;;;10.00;99.90;;;;;;5015100;28;20676;-80
2021/09/30 04:24:56;;;;;;;5.78;2.08;;;10.00;99.90;;;;;;5015024;28;20204;-82
2021/09/30 04:27:22;;;;;;;16.90;2.58;;;10.00;99.90;;;;;;5014989;28;20168;-81
2021/09/30 04:29:48;;;;;;;12.63;2.42;;;10.20;99.90;;;;;;5015047;28;20595;-81
2021/09/30 04:32:14;;;;;;;4.03;1.80;;;10.10;99.90;;;;;;5014217;28;20230;-80
2021/09/30 04:34:40;;;;;;;7.15;2.08;;;10.10;99.90;;;;;;5013904;28;20596;-79
2021/09/30 04:37:05;;;;;;;1.88;1.48;;;10.10;99.90;;;;;;5019273;28;20161;-78
2021/09/30 04:39:32;;;;;;;4.55;1.70;;;10.10;99.90;;;;;;5024374;28;20188;-79
2021/09/30 04:41:57;;;;;;;6.75;1.60;;;10.20;99.90;;;;;;5023909;28;20200;-79
2021/09/30 04:44:23;;;;;;;7.72;2.15;;;10.30;99.90;;;;;;5024508;28;20173;-78
2021/09/30 04:46:49;;;;;;;3.15;1.55;;;10.20;99.90;;;;;;5025547;28;20165;-79
2021/09/30 04:49:16;;;;;;;3.50;1.55;;;10.10;99.90;;;;;;5026657;28;20208;-78
2021/09/30 04:51:41;;;;;;;2.60;1.90;;;10.00;99.90;;;;;;5027169;28;20172;-76
2021/09/30 04:54:07;;;;;;;8.68;2.25;;;10.20;99.90;;;;;;5027099;28;20208;-79
2021/09/30 04:56:33;;;;;;;4.07;1.77;;;10.20;99.90;;;;;;5030345;28;20200;-79
2021/09/30 04:59:01;;;;;;;1.42;1.30;;;10.20;99.90;;;;;;5028286;28;20203;-78
2021/09/30 05:01:26;;;;;;;4.55;1.95;;;10.10;99.90;;;;;;5021726;28;20161;-80
2021/09/30 05:03:52;;;;;;;1.98;1.33;;;10.00;99.90;;;;;;5014239;28;20651;-80
2021/09/30 05:06:18;;;;;;;10.60;1.38;;;10.10;99.90;;;;;;5014804;28;20212;-79
2021/09/30 05:08:47;;;;;;;3.03;1.63;;;10.10;99.90;;;;;;5014034;28;20277;-78
2021/09/30 05:11:12;;;;;;;4.53;1.80;;;10.00;99.90;;;;;;5014130;28;20161;-81
2021/09/30 05:13:39;;;;;;;9.32;1.70;;;10.10;99.90;;;;;;5013589;28;20482;-78
2021/09/30 05:16:07;;;;;;;7.82;2.05;;;10.00;99.90;;;;;;5013958;28;20200;-80
2021/09/30 05:18:34;;;;;;;5.47;1.55;;;10.00;99.90;;;;;;5013502;28;20180;-80
2021/09/30 05:20:59;;;;;;;7.20;2.05;;;10.20;99.90;;;;;;5014503;28;20574;-79
2021/09/30 05:23:25;;;;;;;4.05;2.58;;;10.10;99.90;;;;;;5013457;28;20199;-80
2021/09/30 05:25:51;;;;;;;14.38;1.60;;;10.10;99.90;;;;;;5013849;28;20201;-79
2021/09/30 05:28:17;;;;;;;4.30;1.25;;;10.10;99.90;;;;;;5013361;28;20580;-78
2021/09/30 05:30:42;;;;;;;5.97;1.65;;;10.00;99.90;;;;;;5013464;28;20169;-78
2021/09/30 05:33:08;;;;;;;12.23;2.17;;;10.00;99.90;;;;;;5011737;28;20238;-78
2021/09/30 05:35:34;;;;;;;17.73;2.30;;;10.20;99.90;;;;;;5012277;28;20230;-78
2021/09/30 05:37:59;;;;;;;8.60;1.48;;;10.10;99.90;;;;;;5012951;28;20171;-78
2021/09/30 05:40:27;;;;;;;8.70;2.05;;;10.00;99.90;;;;;;5012905;28;20196;-80
2021/09/30 05:42:54;;;;;;;9.60;1.98;;;10.10;99.90;;;;;;5013086;28;20173;-78
2021/09/30 05:45:20;;;;;;;4.18;1.60;;;9.90;99.90;;;;;;5013251;28;20203;-80
2021/09/30 05:47:46;;;;;;;7.65;1.92;;;9.90;99.90;;;;;;5012830;28;20202;-77
2021/09/30 05:50:13;;;;;;;6.55;1.73;;;9.90;99.90;;;;;;5012689;28;20242;-79
2021/09/30 05:52:39;;;;;;;5.78;1.40;;;9.90;99.90;;;;;;5013222;28;20191;-77
2021/09/30 05:55:06;;;;;;;5.80;2.47;;;9.70;99.90;;;;;;5012563;28;20949;-78
2021/09/30 05:57:32;;;;;;;2.33;1.52;;;9.70;99.90;;;;;;5012185;28;20164;-78
2021/09/30 06:00:28;;;;;;;8.07;1.75;;;10.10;99.90;;;;;;5012486;28;20702;-80
2021/09/30 06:13:38;;;;;;;6.93;1.50;;;10.50;99.90;;;;;;5012249;28;20187;-79
2021/09/30 06:16:09;;;;;;;2.25;1.30;;;10.40;99.90;;;;;;5012121;28;20200;-79
2021/09/30 06:18:35;;;;;;;3.53;1.35;;;10.50;99.90;;;;;;5012113;28;20192;-78
2021/09/30 06:21:00;;;;;;;5.13;1.40;;;10.40;99.90;;;;;;5010673;28;20691;-78
2021/09/30 06:23:26;;;;;;;5.65;1.42;;;10.60;99.90;;;;;;5011620;28;20175;-79
2021/09/30 06:25:52;;;;;;;9.27;1.45;;;10.70;99.90;;;;;;5012079;28;20172;-78
2021/09/30 06:28:18;;;;;;;5.15;2.10;;;10.70;99.90;;;;;;5011684;28;20161;-78
2021/09/30 06:30:43;;;;;;;9.98;1.60;;;10.60;99.90;;;;;;5011760;28;20247;-78
2021/09/30 06:33:09;;;;;;;9.23;1.48;;;10.60;99.90;;;;;;5011901;28;20176;-78
2021/09/30 06:35:34;;;;;;;4.13;1.30;;;10.70;99.90;;;;;;5011664;28;20208;-80
2021/09/30 06:38:00;;;;;;;7.78;2.15;;;10.50;99.90;;;;;;5011876;28;20164;-80
2021/09/30 06:40:26;;;;;;;4.85;1.33;;;10.60;99.90;;;;;;5010976;28;20195;-79
2021/09/30 06:42:52;;;;;;;18.83;2.08;;;10.60;99.90;;;;;;5012454;28;20168;-80
2021/09/30 06:45:17;;;;;;;7.45;1.40;;;10.80;99.90;;;;;;5012234;28;20174;-79
2021/09/30 06:47:43;;;;;;;6.28;1.75;;;10.70;99.90;;;;;;5012238;28;20584;-80
2021/09/30 06:50:11;;;;;;;13.27;2.30;;;10.90;99.90;;;;;;5011551;28;20196;-81
2021/09/30 06:52:37;;;;;;;7.72;1.70;;;10.90;99.90;;;;;;5011936;28;20173;-78
2021/09/30 06:55:04;;;;;;;9.00;1.73;;;10.70;99.90;;;;;;5012733;28;20215;-83
2021/09/30 06:57:29;;;;;;;3.03;1.40;;;10.90;99.90;;;;;;5016035;28;20169;-79
2021/09/30 06:59:59;;;;;;;6.18;1.30;;;10.70;99.90;;;;;;5014433;28;20554;-78
2021/09/30 07:02:24;;;;;;;8.43;2.25;;;10.80;99.90;;;;;;5016138;28;20166;-78
2021/09/30 07:04:50;;;;;;;13.73;1.92;;;10.90;99.90;;;;;;5015724;28;20172;-78
2021/09/30 07:07:16;;;;;;;10.73;1.48;;;11.00;99.90;;;;;;5015538;28;20164;-80
2021/09/30 07:09:42;;;;;;;6.32;2.00;;;11.00;99.90;;;;;;5015800;28;20698;-78
2021/09/30 07:12:08;;;;;;;5.93;1.70;;;11.00;99.90;;;;;;5015957;28;20280;-78
2021/09/30 07:14:34;;;;;;;12.65;1.75;;;11.00;99.90;;;;;;5015392;28;20275;-78
2021/09/30 07:16:59;;;;;;;3.00;1.52;;;11.10;99.90;;;;;;5015836;28;20540;-79
2021/09/30 07:19:25;;;;;;;12.75;2.28;;;10.90;99.90;;;;;;5014829;28;20223;-78
2021/09/30 07:21:51;;;;;;;10.07;1.58;;;10.90;99.90;;;;;;5015514;28;20692;-80
2021/09/30 07:24:17;;;;;;;9.38;2.03;;;11.10;99.90;;;;;;5015779;28;20166;-79
2021/09/30 07:26:43;;;;;;;11.70;1.80;;;11.40;99.90;;;;;;5016040;28;20574;-81
2021/09/30 07:29:08;;;;;;;4.07;1.60;;;11.30;99.90;;;;;;5015440;28;20200;-79
2021/09/30 07:31:34;;;;;;;8.65;1.98;;;11.50;99.90;;;;;;5015571;28;20211;-79
2021/09/30 07:34:00;;;;;;;10.23;2.13;;;11.70;99.90;;;;;;5014954;28;20272;-83
2021/09/30 07:36:25;;;;;;;16.33;1.85;;;11.80;99.90;;;;;;5015485;28;20246;-83
2021/09/30 07:38:51;;;;;;;6.72;1.83;;;12.00;99.90;;;;;;5015258;28;20192;-79
2021/09/30 07:41:17;;;;;;;9.02;2.17;;;11.90;99.90;;;;;;5015402;28;20255;-81
2021/09/30 07:43:43;;;;;;;5.97;1.63;;;12.10;99.90;;;;;;5015498;28;20255;-80
2021/09/30 07:46:08;;;;;;;6.72;1.70;;;12.10;99.90;;;;;;5015625;28;20172;-79
2021/09/30 07:48:34;;;;;;;6.47;1.98;;;12.30;99.90;;;;;;5014057;28;20556;-79
2021/09/30 07:51:00;;;;;;;8.65;1.60;;;12.40;99.90;;;;;;5014017;28;20168;-78
2021/09/30 07:53:26;;;;;;;10.98;1.92;;;12.50;99.90;;;;;;5015339;28;20207;-80
2021/09/30 07:55:52;;;;;;;13.48;2.22;;;12.70;99.90;;;;;;5015122;28;20204;-77
2021/09/30 07:58:18;;;;;;;7.50;1.50;;;12.80;99.90;;;;;;5013670;28;20180;-78
2021/09/30 08:00:44;;;;;;;9.85;2.22;;;12.70;99.90;;;;;;5015136;28;20251;-80
2021/09/30 08:03:10;;;;;;;5.90;1.63;;;12.70;99.90;;;;;;5013787;28;20640;-79
2021/09/30 08:05:36;;;;;;;3.72;2.08;;;12.90;99.90;;;;;;5014775;28;20624;-78
2021/09/30 08:08:07;;;;;;;12.10;1.90;;;13.00;99.90;;;;;;5012498;28;20169;-79
2021/09/30 08:10:33;;;;;;;8.85;1.75;;;13.10;99.90;;;;;;5014666;28;20199;-83
2021/09/30 08:13:01;;;;;;;8.55;1.73;;;13.30;99.90;;;;;;5014852;28;20168;-80
2021/09/30 08:15:27;;;;;;;8.40;1.40;;;13.50;99.90;;;;;;5014432;28;20251;-79
2021/09/30 08:17:53;;;;;;;8.95;1.50;;;13.70;99.90;;;;;;5014429;28;20247;-78
2021/09/30 08:20:22;;;;;;;6.72;1.35;;;13.70;99.90;;;;;;5014607;28;20275;-78
2021/09/30 08:22:49;;;;;;;7.78;1.40;;;13.90;99.90;;;;;;5014043;28;20208;-79
2021/09/30 08:25:15;;;;;;;4.13;1.38;;;13.80;99.90;;;;;;5013157;28;20268;-79
2021/09/30 08:27:42;;;;;;;4.60;1.63;;;13.90;99.90;;;;;;5014399;28;20179;-80
2021/09/30 08:30:08;;;;;;;11.55;1.50;;;14.20;99.90;;;;;;5012803;28;20271;-79
2021/09/30 08:32:35;;;;;;;5.50;1.60;;;14.30;99.90;;;;;;5015244;28;20188;-83
2021/09/30 08:35:01;;;;;;;7.60;1.20;;;14.60;99.90;;;;;;5014024;28;20641;-80
2021/09/30 08:37:26;;;;;;;4.18;1.40;;;14.70;99.90;;;;;;5015473;28;20200;-78
2021/09/30 08:39:52;;;;;;;2.95;1.00;;;14.80;99.90;;;;;;5015234;28;20196;-81
2021/09/30 08:42:18;;;;;;;4.78;1.35;;;14.70;99.90;;;;;;5014877;28;20247;-79
2021/09/30 08:44:43;;;;;;;5.32;1.95;;;14.60;99.90;;;;;;5014736;28;20616;-78
2021/09/30 08:47:09;;;;;;;8.63;1.77;;;14.60;99.90;;;;;;5014850;28;20621;-79
2021/09/30 08:49:35;;;;;;;5.75;2.08;;;14.70;99.90;;;;;;5015194;28;20300;-79
2021/09/30 08:52:01;;;;;;;7.65;1.63;;;15.00;99.90;;;;;;5015481;28;20172;-79
2021/09/30 08:54:27;;;;;;;4.22;1.20;;;15.20;99.90;;;;;;5015040;28;20188;-80
2021/09/30 08:56:53;;;;;;;7.70;1.85;;;15.20;99.90;;;;;;5015345;28;20188;-80
2021/09/30 08:59:24;;;;;;;10.45;1.55;;;15.10;99.90;;;;;;5014856;28;20188;-79
2021/09/30 09:02:06;;;;;;;5.32;1.20;;;15.30;99.90;;;;;;5014942;28;20556;-89
2021/09/30 09:04:31;;;;;;;9.82;2.65;;;15.40;99.90;;;;;;5015989;28;20239;-89
2021/09/30 09:07:08;;;;;;;9.30;1.48;;;15.60;99.90;;;;;;5015317;28;20238;-89
2021/09/30 09:09:35;;;;;;;6.70;1.42;;;15.70;99.90;;;;;;5015512;28;20226;-87
2021/09/30 09:12:08;;;;;;;5.03;1.92;;;15.80;99.90;;;;;;5015188;28;20517;-88
2021/09/30 09:14:40;;;;;;;4.22;1.55;;;15.80;99.90;;;;;;5014874;28;20196;-87
2021/09/30 09:17:11;;;;;;;9.07;1.50;;;15.50;99.90;;;;;;5014830;28;20168;-84
2021/09/30 09:19:50;;;;;;;3.08;1.40;;;15.50;99.90;;;;;;5014298;28;20188;-84
2021/09/30 09:22:21;;;;;;;5.10;1.17;;;15.10;99.90;;;;;;5015057;28;20172;-89
2021/09/30 09:25:15;;;;;;;10.90;1.52;;;15.30;99.90;;;;;;5014716;28;20188;-89
2021/09/30 09:28:00;;;;;;;3.45;1.92;;;15.30;99.90;;;;;;5011526;28;20188;-88
2021/09/30 09:30:45;;;;;;;2.47;1.38;;;15.40;99.90;;;;;;5013079;28;20234;-78
2021/09/30 09:33:28;;;;;;;5.10;1.85;;;15.80;99.90;;;;;;5013471;28;20184;-88
2021/09/30 09:36:09;;;;;;;7.05;1.75;;;16.00;99.90;;;;;;5013938;28;20545;-78
2021/09/30 09:38:51;;;;;;;6.43;2.45;;;15.90;99.90;;;;;;5013496;28;20184;-83
2021/09/30 09:41:35;;;;;;;5.55;1.95;;;15.90;99.90;;;;;;5011896;28;20179;-78
2021/09/30 09:44:04;;;;;;;6.22;1.27;;;16.10;99.90;;;;;;5011718;28;20176;-88
2021/09/30 09:46:34;;;;;;;15.40;2.78;;;16.00;99.90;;;;;;5014151;28;20170;-91
2021/09/30 09:49:02;;;;;;;8.27;1.60;;;15.60;99.90;;;;;;5014204;28;20185;-87
2021/09/30 09:51:41;;;;;;;3.65;1.55;;;15.50;99.90;;;;;;5015111;28;20200;-86
2021/09/30 09:54:09;;;;;;;6.60;2.45;;;15.50;99.90;;;;;;5013476;28;20171;-83
2021/09/30 09:56:35;;;;;;;7.70;3.17;;;15.70;99.90;;;;;;5013557;28;20177;-79
2021/09/30 09:59:00;;;;;;;4.07;2.35;;;16.00;99.90;;;;;;5012545;28;20193;-79
2021/09/30 10:01:36;;;;;;;7.43;2.47;;;15.90;99.90;;;;;;5012429;28;20656;-80
2021/09/30 10:04:02;;;;;;;16.05;2.53;;;15.80;99.90;;;;;;5012404;28;20809;-81
2021/09/30 10:06:33;;;;;;;6.40;2.45;;;15.60;99.90;;;;;;5011581;28;20261;-81
2021/09/30 10:09:01;;;;;;;15.82;3.17;;;15.90;99.90;;;;;;5011422;28;20258;-79
2021/09/30 10:11:27;;;;;;;5.53;3.65;;;16.00;99.90;;;;;;5012915;28;20731;-80
2021/09/30 10:14:00;;;;;;;5.55;3.60;;;16.00;99.90;;;;;;5012739;28;20169;-82
2021/09/30 10:16:27;;;;;;;6.85;4.15;;;16.00;99.90;;;;;;5012988;28;20201;-79
2021/09/30 10:19:02;;;;;;;10.43;4.82;;;15.90;99.90;;;;;;5012366;28;20603;-78
2021/09/30 10:21:28;;;;;;;9.20;4.07;;;15.70;99.90;;;;;;5012259;28;20179;-81
2021/09/30 10:23:58;;;;;;;20.65;4.30;;;15.70;99.90;;;;;;5012843;28;20206;-83
2021/09/30 10:26:32;;;;;;;10.35;4.28;;;15.80;99.90;;;;;;5011905;28;20259;-79
2021/09/30 10:28:59;;;;;;;16.10;4.20;;;15.70;99.90;;;;;;5012005;28;20481;-83
2021/09/30 10:31:27;;;;;;;11.43;4.65;;;15.90;99.90;;;;;;5012201;28;20576;-81
2021/09/30 10:33:55;;;;;;;7.18;3.75;;;15.90;99.90;;;;;;5012145;28;20690;-80
2021/09/30 10:36:32;;;;;;;16.52;3.80;;;16.00;99.90;;;;;;5012651;28;20185;-80
2021/09/30 10:39:23;;;;;;;6.80;3.17;;;16.20;99.90;;;;;;5011203;28;20242;-82
2021/09/30 10:41:56;;;;;;;8.18;3.15;;;16.60;99.90;;;;;;5012434;28;20165;-81
2021/09/30 10:44:34;;;;;;;4.85;2.85;;;16.70;99.90;;;;;;5012369;28;20168;-80
2021/09/30 10:47:10;;;;;;;5.13;2.47;;;16.90;99.90;;;;;;5012000;28;20206;-79
2021/09/30 10:49:46;;;;;;;4.93;2.47;;;17.00;99.90;;;;;;5011957;28;20187;-81
2021/09/30 10:52:15;;;;;;;4.43;2.60;;;16.70;99.90;;;;;;5011009;28;20532;-81
2021/09/30 10:54:42;;;;;;;10.75;3.00;;;16.70;99.90;;;;;;5012468;28;20214;-79
2021/09/30 10:57:33;;;;;;;5.97;3.00;;;16.70;99.90;;;;;;5012235;28;20171;-79
2021/09/30 10:59:59;;;;;;;5.90;2.38;;;16.50;99.90;;;;;;5012108;28;20218;-78
2021/09/30 11:02:25;;;;;;;6.13;2.35;;;16.40;99.90;;;;;;5012629;28;20172;-78
2021/09/30 11:05:09;;;;;;;8.13;2.70;;;16.40;99.90;;;;;;5012037;28;20183;-79
2021/09/30 11:07:38;;;;;;;12.25;3.70;;;16.30;99.90;;;;;;5011996;28;20165;-80
2021/09/30 11:10:13;;;;;;;8.25;2.70;;;16.40;99.90;;;;;;5012029;28;20189;-78
2021/09/30 11:12:39;;;;;;;7.78;2.10;;;16.60;99.90;;;;;;5011768;28;20251;-79
2021/09/30 11:15:05;;;;;;;18.00;2.47;;;16.60;99.90;;;;;;5012452;28;20768;-78
2021/09/30 11:17:39;;;;;;;6.90;2.03;;;16.60;99.90;;;;;;5012520;28;20191;-80
2021/09/30 11:20:34;;;;;;;13.52;2.78;;;16.40;99.90;;;;;;5012460;28;20196;-80
2021/09/30 11:23:00;;;;;;;4.78;2.25;;;16.10;99.90;;;;;;5011272;28;20180;-79
2021/09/30 11:26:03;;;;;;;15.93;2.33;;;15.90;99.90;;;;;;5012068;28;20520;-77
2021/09/30 11:28:30;;;;;;;12.52;2.42;;;16.00;99.90;;;;;;5011989;28;20243;-83
2021/09/30 11:31:31;;;;;;;7.60;2.58;;;16.10;99.90;;;;;;5004939;28;20180;-83
2021/09/30 11:33:59;;;;;;;6.30;2.95;;;16.20;99.90;;;;;;4995173;28;20591;-77
2021/09/30 11:36:33;;;;;;;11.27;3.20;;;16.20;99.90;;;;;;5011505;28;20184;-82
2021/09/30 11:38:59;;;;;;;6.68;3.25;;;16.40;99.90;;;;;;5010588;28;20186;-89
2021/09/30 11:41:28;;;;;;;6.20;2.67;;;16.70;99.90;;;;;;5028697;28;20258;-89
2021/09/30 11:43:54;;;;;;;8.25;3.90;;;16.70;99.90;;;;;;5032854;28;20218;-80
2021/09/30 11:46:28;;;;;;;8.10;2.72;;;16.70;99.90;;;;;;5014849;28;20168;-85
2021/09/30 11:49:04;;;;;;;5.80;2.78;;;16.70;99.90;;;;;;5015628;28;20196;-77
2021/09/30 11:51:33;;;;;;;8.32;2.67;;;16.60;99.90;;;;;;5011806;28;20557;-77
2021/09/30 11:54:00;;;;;;;7.18;3.85;;;16.80;99.90;;;;;;5014987;28;20169;-86
2021/09/30 11:56:26;;;;;;;6.38;2.67;;;17.10;99.90;;;;;;5014121;28;20191;-80
2021/09/30 11:58:58;;;;;;;5.97;3.00;;;16.80;99.90;;;;;;5013596;28;20556;-77
2021/09/30 12:01:47;;;;;;;10.63;2.42;;;16.80;99.90;;;;;;5031002;28;20731;-77
2021/09/30 12:04:27;;;;;;;10.88;2.85;;;16.40;99.90;;;;;;5032077;28;20523;-91
2021/09/30 12:06:52;;;;;;;11.30;3.08;;;16.40;99.90;;;;;;5011919;28;20172;-80
2021/09/30 12:09:19;;;;;;;12.70;2.58;;;16.40;99.90;;;;;;5013602;28;20196;-82
2021/09/30 12:11:51;;;;;;;5.28;2.42;;;16.70;99.90;;;;;;4993990;28;20165;-79
2021/09/30 12:14:18;;;;;;;3.22;2.30;;;16.70;99.90;;;;;;4991831;28;20197;-77
2021/09/30 12:16:58;;;;;;;8.10;2.90;;;16.90;99.90;;;;;;5030030;28;20551;-77
2021/09/30 12:19:31;;;;;;;6.03;2.50;;;17.00;99.90;;;;;;5031892;28;20179;-78
2021/09/30 12:21:58;;;;;;;12.60;2.30;;;17.10;99.90;;;;;;5013700;28;20172;-80
2021/09/30 12:24:25;;;;;;;6.70;2.45;;;17.20;99.90;;;;;;5013559;28;20218;-78
2021/09/30 12:26:52;;;;;;;8.32;2.08;;;17.50;99.90;;;;;;5030839;28;20284;-77
2021/09/30 12:29:18;;;;;;;10.50;2.08;;;17.60;99.90;;;;;;5012099;28;20181;-88
2021/09/30 12:31:45;;;;;;;7.35;1.80;;;17.60;99.90;;;;;;5013078;28;20359;-78
2021/09/30 12:34:24;;;;;;;13.38;2.40;;;17.70;99.90;;;;;;5013118;28;20176;-78
2021/09/30 12:36:50;;;;;;;2.05;1.40;;;17.80;99.90;;;;;;5031687;28;20644;-78
2021/09/30 12:39:24;;;;;;;5.60;1.38;;;17.70;99.90;;;;;;5034232;28;20226;-79
2021/09/30 12:41:50;;;;;;;10.32;1.40;;;17.20;99.90;;;;;;5034499;28;20167;-77
2021/09/30 12:44:16;;;;;;;3.63;1.00;;;17.30;99.90;;;;;;5029027;28;20221;-83
2021/09/30 12:46:44;;;;;;;6.10;1.00;;;17.50;99.90;;;;;;5017304;28;20180;-80
2021/09/30 12:49:10;;;;;;;4.38;1.52;;;17.60;99.90;;;;;;5014271;28;20191;-78
2021/09/30 12:51:35;;;;;;;10.15;1.27;;;17.50;99.90;;;;;;5013098;28;20173;-79
2021/09/30 12:54:04;;;;;;;3.63;1.58;;;17.30;99.90;;;;;;5012251;28;20180;-80
2021/09/30 12:56:32;;;;;;;12.85;1.67;;;17.60;99.90;;;;;;5028832;28;20270;-81
2021/09/30 12:59:11;;;;;;;4.35;1.50;;;17.40;99.90;;;;;;5031863;28;20191;-80
2021/09/30 13:01:40;;;;;;;8.35;1.20;;;17.50;99.90;;;;;;5033773;28;20172;-83
2021/09/30 13:04:14;;;;;;;5.50;1.30;;;17.70;99.90;;;;;;5027560;28;20342;-82
2021/09/30 13:06:52;;;;;;;6.63;1.20;;;17.60;99.90;;;;;;5008730;28;20666;-86
2021/09/30 13:09:29;;;;;;;3.97;0.95;;;17.90;99.90;;;;;;5010675;28;20199;-77
2021/09/30 13:11:58;;;;;;;3.80;1.25;;;17.90;99.90;;;;;;5012484;28;20176;-86
2021/09/30 13:14:26;;;;;;;5.38;1.83;;;18.00;99.90;;;;;;5013141;28;20648;-78
2021/09/30 13:16:56;;;;;;;5.68;1.77;;;17.80;99.90;;;;;;5028450;28;20591;-79
2021/09/30 13:19:54;;;;;;;8.85;1.73;;;18.00;99.90;;;;;;5011835;28;20290;-80
2021/09/30 13:22:33;;;;;;;4.13;1.15;;;18.10;99.90;;;;;;4994833;28;20669;-87
2021/09/30 13:25:02;;;;;;;6.78;1.38;;;18.10;99.90;;;;;;5001114;28;20175;-78
2021/09/30 13:27:30;;;;;;;2.15;0.90;;;18.00;99.90;;;;;;5031872;28;20168;-77
2021/09/30 13:29:57;;;;;;;4.28;1.60;;;17.90;99.90;;;;;;5021146;28;20647;-77
2021/09/30 13:32:25;;;;;;;7.60;0.98;;;17.70;99.90;;;;;;5029199;28;20202;-82
2021/09/30 13:34:52;;;;;;;5.50;1.60;;;17.60;99.90;;;;;;5031628;28;20543;-77
2021/09/30 13:37:18;;;;;;;8.30;1.67;;;17.30;99.90;;;;;;5031276;28;20171;-79
2021/09/30 13:39:43;;;;;;;6.20;1.65;;;17.60;99.90;;;;;;5031712;28;20191;-78
2021/09/30 13:42:10;;;;;;;8.73;1.35;;;17.70;99.90;;;;;;5031540;28;20160;-78
2021/09/30 13:44:36;;;;;;;8.23;1.63;;;18.00;99.90;;;;;;5030104;28;20680;-77
2021/09/30 13:47:02;;;;;;;4.47;1.02;;;18.00;99.90;;;;;;5032159;28;20176;-79
2021/09/30 13:49:28;;;;;;;8.90;2.00;;;18.20;99.90;;;;;;5021501;28;20192;-83
2021/09/30 13:51:54;;;;;;;5.28;1.30;;;18.20;99.90;;;;;;4992822;28;20181;-81
2021/09/30 13:54:20;;;;;;;11.02;1.30;;;17.90;99.90;;;;;;4991370;28;20188;-81
2021/09/30 13:56:45;;;;;;;5.22;1.67;;;17.90;99.90;;;;;;5025152;28;20173;-81
2021/09/30 13:59:12;;;;;;;5.15;1.15;;;17.70;99.90;;;;;;5049586;28;20219;-81
2021/09/30 14:01:39;;;;;;;11.88;1.88;;;17.60;99.90;;;;;;5034426;28;20207;-82
2021/09/30 14:04:04;;;;;;;4.22;1.30;;;17.90;99.90;;;;;;5029705;28;20660;-82
2021/09/30 14:06:30;;;;;;;2.97;1.60;;;17.90;99.90;;;;;;5031654;28;20701;-84
2021/09/30 14:08:56;;;;;;;4.43;1.65;;;17.90;99.90;;;;;;5011666;28;20653;-81
2021/09/30 14:11:24;;;;;;;5.72;1.73;;;17.70;99.90;;;;;;5012281;28;20699;-84
2021/09/30 14:13:55;;;;;;;3.88;1.30;;;17.50;99.90;;;;;;5014085;28;20268;-83
2021/09/30 14:16:24;;;;;;;4.55;1.48;;;17.50;99.90;;;;;;5028133;28;20617;-81
2021/09/30 14:18:52;;;;;;;9.98;1.52;;;17.40;99.90;;;;;;5032145;28;20726;-83
2021/09/30 14:21:19;;;;;;;8.23;1.42;;;17.40;99.90;;;;;;5031948;28;20178;-78
2021/09/30 14:23:46;;;;;;;5.00;1.48;;;17.40;99.90;;;;;;5027038;28;20552;-83
2021/09/30 14:26:11;;;;;;;4.22;1.15;;;17.40;99.90;;;;;;5012876;28;20168;-80
2021/09/30 14:28:37;;;;;;;7.40;1.42;;;17.40;99.90;;;;;;5010234;28;20261;-83
2021/09/30 14:31:03;;;;;;;13.57;2.00;;;17.50;99.90;;;;;;5009418;28;20172;-82
2021/09/30 14:33:32;;;;;;;5.70;1.00;;;17.70;99.90;;;;;;5011554;28;20279;-82
2021/09/30 14:35:58;;;;;;;4.38;1.48;;;17.70;99.90;;;;;;5011121;28;20200;-82
2021/09/30 14:38:24;;;;;;;7.13;1.50;;;17.60;99.90;;;;;;5012133;28;20239;-79
2021/09/30 14:40:50;;;;;;;8.35;3.15;;;17.40;99.90;;;;;;5012395;28;20356;-84
2021/09/30 14:43:29;;;;;;;6.30;2.60;;;17.20;99.90;;;;;;5011342;28;20808;-80
2021/09/30 14:45:54;;;;;;;3.55;1.50;;;17.30;99.90;;;;;;5011836;28;20230;-80
2021/09/30 14:48:20;;;;;;;10.38;1.45;;;17.40;99.90;;;;;;5028320;28;20180;-80
2021/09/30 14:50:46;;;;;;;2.42;1.20;;;17.40;99.90;;;;;;5012769;28;20165;-77
2021/09/30 14:53:13;;;;;;;5.97;1.17;;;17.30;99.90;;;;;;5011913;28;20172;-77
2021/09/30 14:55:39;;;;;;;7.07;1.25;;;17.40;99.90;;;;;;5011911;28;20258;-77
2021/09/30 14:58:06;;;;;;;5.35;1.73;;;17.40;99.90;;;;;;5011550;28;20164;-77
2021/09/30 15:00:32;;;;;;;13.68;2.55;;;17.20;99.90;;;;;;5012261;28;20199;-77
2021/09/30 15:03:02;;;;;;;11.25;1.75;;;17.10;99.90;;;;;;5011207;28;20259;-77
2021/09/30 15:05:28;;;;;;;5.38;2.65;;;17.20;99.90;;;;;;5012154;28;20629;-77
2021/09/30 15:07:54;;;;;;;3.88;1.33;;;17.10;99.90;;;;;;5012228;28;20171;-77
2021/09/30 15:10:19;;;;;;;10.38;1.50;;;17.20;99.90;;;;;;5027221;28;20215;-76
2021/09/30 15:12:45;;;;;;;7.70;2.30;;;17.20;99.90;;;;;;5011773;28;20179;-77
2021/09/30 15:15:11;;;;;;;5.65;2.45;;;17.10;99.90;;;;;;5012161;28;20290;-79
2021/09/30 15:22:33;;;;;;;1.92;1.10;;;16.80;99.90;;;;;;5016652;28;20223;-79
2021/09/30 15:24:59;;;;;;;2.17;0.90;;;17.00;99.90;;;;;;5016696;28;20192;-82
2021/09/30 15:27:25;;;;;;;7.25;0.98;;;16.90;99.90;;;;;;5016203;28;20172;-82
2021/09/30 15:29:51;;;;;;;4.13;1.77;;;16.80;99.90;;;;;;5015906;28;20200;-83
2021/09/30 15:32:17;;;;;;;8.80;1.25;;;16.80;99.90;;;;;;5016374;28;20178;-86
2021/09/30 15:34:43;;;;;;;2.63;1.20;;;16.70;99.90;;;;;;5016877;28;20196;-82
2021/09/30 15:37:09;;;;;;;4.05;1.25;;;16.80;99.90;;;;;;5016994;28;20204;-79
2021/09/30 15:39:35;;;;;;;8.15;1.08;;;16.80;99.90;;;;;;5015446;28;20593;-80
2021/09/30 15:42:01;;;;;;;16.73;1.83;;;16.80;99.90;;;;;;5015414;28;20203;-84
2021/09/30 15:44:28;;;;;;;4.72;1.30;;;17.00;99.90;;;;;;5015546;28;20165;-81
2021/09/30 15:46:54;;;;;;;3.47;1.58;;;17.00;99.90;;;;;;5015548;28;20621;-85
2021/09/30 15:49:19;;;;;;;9.60;1.30;;;17.00;99.90;;;;;;5015572;28;20554;-80
2021/09/30 15:51:47;;;;;;;8.63;1.10;;;17.00;99.90;;;;;;5016266;28;20172;-82
2021/09/30 15:54:13;;;;;;;1.45;1.00;;;17.00;99.90;;;;;;5015765;28;20184;-78
2021/09/30 15:56:39;;;;;;;1.92;0.85;;;16.90;99.90;;;;;;5013925;28;20165;-77